Terminal Aerodrome Forecast
Issued by NWS

Home | Current Version | Previous Version | Text Only | Print | Product List | Glossary On
Versions: 1 2 3 4 5 6 7 8 9 10 11 12 13 14 15 16 17 18 19 20
000
FTUS41 KBGM 222101 AAA
TAFRME
TAF AMD
KRME 222101Z 2221/2318 VRB03KT P6SM OVC015
      TEMPO 2300/2304 SCT015
     FM230800 12010KT P6SM OVC025
     FM231600 12012G22KT 5SM -RA BR OVC015
      TEMPO 2316/2318 5SM -FZRA BR=

USA.gov is the U.S. government's official web portal to all federal, state and local government web resources and services.